sensor_id;sensor_type;location;lat;lon;timestamp;temperature;humidity
27368;DHT22;14839;48.106;11.618;2022-10-31T05:00:25;7.50;94.60
27368;DHT22;14839;48.106;11.618;2022-10-31T05:02:56;7.40;94.60
27368;DHT22;14839;48.106;11.618;2022-10-31T05:05:24;7.40;94.60
27368;DHT22;14839;48.106;11.618;2022-10-31T05:07:50;7.50;94.60
27368;DHT22;14839;48.106;11.618;2022-10-31T05:10:18;7.40;94.60
27368;DHT22;14839;48.106;11.618;2022-10-31T05:12:56;7.40;94.60
27368;DHT22;14839;48.106;11.618;2022-10-31T05:15:23;7.40;94.60
27368;DHT22;14839;48.106;11.618;2022-10-31T05:17:50;7.40;94.60
27368;DHT22;14839;48.106;11.618;2022-10-31T05:20:17;7.40;94.60
27368;DHT22;14839;48.106;11.618;2022-10-31T05:22:51;7.30;94.60
27368;DHT22;14839;48.106;11.618;2022-10-31T05:25:18;7.30;94.60
27368;DHT22;14839;48.106;11.618;2022-10-31T05:27:49;7.30;94.60
27368;DHT22;14839;48.106;11.618;2022-10-31T05:30:19;7.30;94.60
27368;DHT22;14839;48.106;11.618;2022-10-31T05:32:47;7.30;94.60
27368;DHT22;14839;48.106;11.618;2022-10-31T05:35:16;7.30;94.60
27368;DHT22;14839;48.106;11.618;2022-10-31T05:37:42;7.30;94.60
27368;DHT22;14839;48.106;11.618;2022-10-31T05:40:10;7.30;94.60
27368;DHT22;14839;48.106;11.618;2022-10-31T05:42:38;7.20;94.60
27368;DHT22;14839;48.106;11.618;2022-10-31T05:45:04;7.20;94.60
27368;DHT22;14839;48.106;11.618;2022-10-31T05:47:30;7.20;94.60
27368;DHT22;14839;48.106;11.618;2022-10-31T05:49:55;7.20;94.60
27368;DHT22;14839;48.106;11.618;2022-10-31T05:52:21;7.20;94.60
27368;DHT22;14839;48.106;11.618;2022-10-31T05:54:46;7.20;94.60
27368;DHT22;14839;48.106;11.618;2022-10-31T05:57:12;7.20;94.60
27368;DHT22;14839;48.106;11.618;2022-10-31T05:59:38;7.30;94.60
27368;DHT22;14839;48.106;11.618;2022-10-31T06:02:03;7.30;94.60
27368;DHT22;14839;48.106;11.618;2022-10-31T06:04:29;7.30;94.60
27368;DHT22;14839;48.106;11.618;2022-10-31T06:06:56;7.40;94.60
27368;DHT22;14839;48.106;11.618;2022-10-31T06:09:22;7.40;94.60
27368;DHT22;14839;48.106;11.618;2022-10-31T06:11:47;7.50;94.60
27368;DHT22;14839;48.106;11.618;2022-10-31T06:14:13;7.50;94.60
27368;DHT22;14839;48.106;11.618;2022-10-31T06:16:39;7.50;94.60
27368;DHT22;14839;48.106;11.618;2022-10-31T06:19:04;7.50;94.60
27368;DHT22;14839;48.106;11.618;2022-10-31T06:21:30;7.60;94.60
27368;DHT22;14839;48.106;11.618;2022-10-31T06:23:56;7.60;94.60
27368;DHT22;14839;48.106;11.618;2022-10-31T06:26:21;7.60;94.60
27368;DHT22;14839;48.106;11.618;2022-10-31T06:28:47;7.70;94.60
27368;DHT22;14839;48.106;11.618;2022-10-31T06:31:12;7.70;94.60
27368;DHT22;14839;48.106;11.618;2022-10-31T06:33:41;7.80;94.60
27368;DHT22;14839;48.106;11.618;2022-10-31T06:36:07;7.90;94.60
27368;DHT22;14839;48.106;11.618;2022-10-31T06:38:33;8.00;94.60
27368;DHT22;14839;48.106;11.618;2022-10-31T06:41:02;8.10;94.60
27368;DHT22;14839;48.106;11.618;2022-10-31T06:43:29;8.10;94.60
27368;DHT22;14839;48.106;11.618;2022-10-31T06:45:55;8.30;94.60
27368;DHT22;14839;48.106;11.618;2022-10-31T06:48:21;8.40;94.60
27368;DHT22;14839;48.106;11.618;2022-10-31T06:50:46;8.50;94.60
27368;DHT22;14839;48.106;11.618;2022-10-31T06:53:12;8.70;94.60
27368;DHT22;14839;48.106;11.618;2022-10-31T06:55:40;8.80;94.60
27368;DHT22;14839;48.106;11.618;2022-10-31T06:58:06;8.90;94.60
27368;DHT22;14839;48.106;11.618;2022-10-31T07:00:32;9.10;94.60
27368;DHT22;14839;48.106;11.618;2022-10-31T07:03:03;9.20;94.60
27368;DHT22;14839;48.106;11.618;2022-10-31T07:05:29;9.40;94.60
27368;DHT22;14839;48.106;11.618;2022-10-31T07:08:00;9.50;94.60
27368;DHT22;14839;48.106;11.618;2022-10-31T07:10:28;9.60;94.60
27368;DHT22;14839;48.106;11.618;2022-10-31T07:13:04;9.60;94.60
27368;DHT22;14839;48.106;11.618;2022-10-31T07:15:34;9.70;94.60
27368;DHT22;14839;48.106;11.618;2022-10-31T07:18:01;9.90;94.60
27368;DHT22;14839;48.106;11.618;2022-10-31T07:20:27;10.10;94.60
27368;DHT22;14839;48.106;11.618;2022-10-31T07:22:53;10.30;94.60
27368;DHT22;14839;48.106;11.618;2022-10-31T07:25:19;10.50;94.60
27368;DHT22;14839;48.106;11.618;2022-10-31T07:27:45;10.70;94.60
27368;DHT22;14839;48.106;11.618;2022-10-31T07:30:12;10.90;94.60
27368;DHT22;14839;48.106;11.618;2022-10-31T07:32:48;11.10;94.60
27368;DHT22;14839;48.106;11.618;2022-10-31T07:35:18;11.50;94.60
27368;DHT22;14839;48.106;11.618;2022-10-31T07:37:43;12.10;94.60
27368;DHT22;14839;48.106;11.618;2022-10-31T07:40:10;12.70;94.60
27368;DHT22;14839;48.106;11.618;2022-10-31T07:42:40;13.00;94.60
27368;DHT22;14839;48.106;11.618;2022-10-31T07:45:08;13.30;94.60
27368;DHT22;14839;48.106;11.618;2022-10-31T07:47:41;13.70;94.60
27368;DHT22;14839;48.106;11.618;2022-10-31T07:50:08;14.10;94.60
27368;DHT22;14839;48.106;11.618;2022-10-31T07:52:34;14.50;93.50
27368;DHT22;14839;48.106;11.618;2022-10-31T07:55:00;14.60;93.60
27368;DHT22;14839;48.106;11.618;2022-10-31T07:57:26;15.00;92.80
27368;DHT22;14839;48.106;11.618;2022-10-31T07:59:52;15.10;91.10
27368;DHT22;14839;48.106;11.618;2022-10-31T08:02:17;15.20;91.80
27368;DHT22;14839;48.106;11.618;2022-10-31T08:04:43;15.50;92.40
27368;DHT22;14839;48.106;11.618;2022-10-31T08:07:09;15.60;91.60
27368;DHT22;14839;48.106;11.618;2022-10-31T08:09:34;15.80;90.50
27368;DHT22;14839;48.106;11.618;2022-10-31T08:12:00;16.20;90.20
27368;DHT22;14839;48.106;11.618;2022-10-31T08:14:26;16.40;89.20
27368;DHT22;14839;48.106;11.618;2022-10-31T08:16:53;16.60;87.50
27368;DHT22;14839;48.106;11.618;2022-10-31T08:19:19;16.60;89.30
27368;DHT22;14839;48.106;11.618;2022-10-31T08:21:44;16.70;86.90
27368;DHT22;14839;48.106;11.618;2022-10-31T08:24:10;17.00;88.90
27368;DHT22;14839;48.106;11.618;2022-10-31T08:26:36;17.00;85.90
27368;DHT22;14839;48.106;11.618;2022-10-31T08:29:01;17.10;86.80
27368;DHT22;14839;48.106;11.618;2022-10-31T08:31:28;17.30;85.60
27368;DHT22;14839;48.106;11.618;2022-10-31T08:33:54;17.50;84.10
27368;DHT22;14839;48.106;11.618;2022-10-31T08:36:20;17.60;84.80
27368;DHT22;14839;48.106;11.618;2022-10-31T08:38:49;17.70;85.10
27368;DHT22;14839;48.106;11.618;2022-10-31T08:41:14;17.70;85.10
27368;DHT22;14839;48.106;11.618;2022-10-31T08:43:40;17.80;85.60
27368;DHT22;14839;48.106;11.618;2022-10-31T08:46:06;18.30;85.90
27368;DHT22;14839;48.106;11.618;2022-10-31T08:48:32;18.40;83.90
27368;DHT22;14839;48.106;11.618;2022-10-31T08:50:59;18.50;83.80
27368;DHT22;14839;48.106;11.618;2022-10-31T08:53:25;18.50;84.80
27368;DHT22;14839;48.106;11.618;2022-10-31T08:55:53;18.80;82.40
27368;DHT22;14839;48.106;11.618;2022-10-31T08:58:19;19.00;80.60
27368;DHT22;14839;48.106;11.618;2022-10-31T09:00:47;19.20;80.90
27368;DHT22;14839;48.106;11.618;2022-10-31T09:03:15;19.20;81.80
27368;DHT22;14839;48.106;11.618;2022-10-31T09:05:41;19.30;81.50
27368;DHT22;14839;48.106;11.618;2022-10-31T09:08:07;19.40;80.60
27368;DHT22;14839;48.106;11.618;2022-10-31T09:10:34;19.50;79.00
27368;DHT22;14839;48.106;11.618;2022-10-31T09:13:09;19.50;79.00
27368;DHT22;14839;48.106;11.618;2022-10-31T09:15:37;19.70;79.10
27368;DHT22;14839;48.106;11.618;2022-10-31T09:18:04;19.70;78.40
27368;DHT22;14839;48.106;11.618;2022-10-31T09:20:31;19.80;79.70
27368;DHT22;14839;48.106;11.618;2022-10-31T09:22:58;20.00;80.50
27368;DHT22;14839;48.106;11.618;2022-10-31T09:25:25;20.00;79.40
27368;DHT22;14839;48.106;11.618;2022-10-31T09:27:51;20.20;76.90
27368;DHT22;14839;48.106;11.618;2022-10-31T09:30:16;20.00;77.90
27368;DHT22;14839;48.106;11.618;2022-10-31T09:32:42;19.90;78.20
27368;DHT22;14839;48.106;11.618;2022-10-31T09:35:08;19.90;79.10
27368;DHT22;14839;48.106;11.618;2022-10-31T09:37:33;19.80;76.40
27368;DHT22;14839;48.106;11.618;2022-10-31T09:39:59;19.50;79.00
27368;DHT22;14839;48.106;11.618;2022-10-31T09:45:26;19.60;78.10
27368;DHT22;14839;48.106;11.618;2022-10-31T09:50:48;20.00;78.50
27368;DHT22;14839;48.106;11.618;2022-10-31T09:53:48;19.90;77.00
27368;DHT22;14839;48.106;11.618;2022-10-31T09:56:18;19.50;77.50
27368;DHT22;14839;48.106;11.618;2022-10-31T09:58:47;19.00;79.30
27368;DHT22;14839;48.106;11.618;2022-10-31T10:03:59;19.10;80.90
27368;DHT22;14839;48.106;11.618;2022-10-31T10:06:33;19.40;80.60
27368;DHT22;14839;48.106;11.618;2022-10-31T10:09:00;19.50;79.40
27368;DHT22;14839;48.106;11.618;2022-10-31T10:17:20;19.20;80.30
27368;DHT22;14839;48.106;11.618;2022-10-31T10:24:55;19.70;79.40
27368;DHT22;14839;48.106;11.618;2022-10-31T10:30:02;19.50;79.00
27368;DHT22;14839;48.106;11.618;2022-10-31T10:32:31;19.40;79.70
27368;DHT22;14839;48.106;11.618;2022-10-31T10:37:47;19.50;78.20
27368;DHT22;14839;48.106;11.618;2022-10-31T10:40:17;19.70;74.60
27368;DHT22;14839;48.106;11.618;2022-10-31T10:43:19;19.80;74.60
27368;DHT22;14839;48.106;11.618;2022-10-31T10:49:09;19.50;73.10
27368;DHT22;14839;48.106;11.618;2022-10-31T10:59:34;19.40;74.00
27368;DHT22;14839;48.106;11.618;2022-10-31T11:02:00;19.20;74.60
27368;DHT22;14839;48.106;11.618;2022-10-31T11:04:32;19.10;76.10
27368;DHT22;14839;48.106;11.618;2022-10-31T11:07:06;18.90;76.90
27368;DHT22;14839;48.106;11.618;2022-10-31T11:09:33;18.90;76.70
27368;DHT22;14839;48.106;11.618;2022-10-31T11:12:07;18.80;77.50
27368;DHT22;14839;48.106;11.618;2022-10-31T11:14:41;18.80;77.50
27368;DHT22;14839;48.106;11.618;2022-10-31T11:17:29;18.80;77.90
27368;DHT22;14839;48.106;11.618;2022-10-31T11:20:00;19.00;76.10
27368;DHT22;14839;48.106;11.618;2022-10-31T11:22:26;19.10;75.10
27368;DHT22;14839;48.106;11.618;2022-10-31T11:24:52;19.00;76.10
27368;DHT22;14839;48.106;11.618;2022-10-31T11:27:23;19.20;77.20
27368;DHT22;14839;48.106;11.618;2022-10-31T11:29:50;19.40;78.20
27368;DHT22;14839;48.106;11.618;2022-10-31T11:32:24;19.40;77.30
27368;DHT22;14839;48.106;11.618;2022-10-31T11:34:54;19.50;76.70
27368;DHT22;14839;48.106;11.618;2022-10-31T11:37:29;19.70;75.10
27368;DHT22;14839;48.106;11.618;2022-10-31T11:40:02;19.60;75.20
27368;DHT22;14839;48.106;11.618;2022-10-31T11:42:38;19.40;75.50
27368;DHT22;14839;48.106;11.618;2022-10-31T11:45:15;19.20;75.20
27368;DHT22;14839;48.106;11.618;2022-10-31T11:47:44;19.40;76.30
27368;DHT22;14839;48.106;11.618;2022-10-31T11:50:18;19.40;75.50
27368;DHT22;14839;48.106;11.618;2022-10-31T11:52:45;19.60;75.50
27368;DHT22;14839;48.106;11.618;2022-10-31T11:57:58;19.80;75.20
27368;DHT22;14839;48.106;11.618;2022-10-31T12:08:43;19.70;75.50
27368;DHT22;14839;48.106;11.618;2022-10-31T12:16:41;19.40;77.50
27368;DHT22;14839;48.106;11.618;2022-10-31T12:19:29;19.20;78.70
27368;DHT22;14839;48.106;11.618;2022-10-31T12:22:27;19.30;79.00
27368;DHT22;14839;48.106;11.618;2022-10-31T12:28:18;19.30;79.10
27368;DHT22;14839;48.106;11.618;2022-10-31T12:34:02;19.40;79.30
27368;DHT22;14839;48.106;11.618;2022-10-31T12:53:30;19.20;81.10
27368;DHT22;14839;48.106;11.618;2022-10-31T12:56:29;19.10;80.80
27368;DHT22;14839;48.106;11.618;2022-10-31T13:04:53;19.20;81.40
27368;DHT22;14839;48.106;11.618;2022-10-31T13:07:39;19.20;81.50
27368;DHT22;14839;48.106;11.618;2022-10-31T13:12:39;19.30;81.20
27368;DHT22;14839;48.106;11.618;2022-10-31T13:15:16;19.30;81.10
27368;DHT22;14839;48.106;11.618;2022-10-31T13:18:06;19.50;80.60
27368;DHT22;14839;48.106;11.618;2022-10-31T13:20:40;19.50;81.10
27368;DHT22;14839;48.106;11.618;2022-10-31T13:25:49;19.50;81.80
27368;DHT22;14839;48.106;11.618;2022-10-31T13:28:29;19.60;81.50
27368;DHT22;14839;48.106;11.618;2022-10-31T13:30:56;19.60;82.00
27368;DHT22;14839;48.106;11.618;2022-10-31T13:33:48;19.60;81.70
27368;DHT22;14839;48.106;11.618;2022-10-31T13:36:43;19.40;82.30
27368;DHT22;14839;48.106;11.618;2022-10-31T13:39:30;19.40;82.90
27368;DHT22;14839;48.106;11.618;2022-10-31T13:42:19;19.40;83.20
27368;DHT22;14839;48.106;11.618;2022-10-31T13:44:46;19.30;83.30
27368;DHT22;14839;48.106;11.618;2022-10-31T13:47:27;19.30;83.90
27368;DHT22;14839;48.106;11.618;2022-10-31T13:50:26;19.30;84.20
27368;DHT22;14839;48.106;11.618;2022-10-31T13:52:50;19.30;84.80
27368;DHT22;14839;48.106;11.618;2022-10-31T13:55:45;19.20;85.00
27368;DHT22;14839;48.106;11.618;2022-10-31T13:58:26;19.30;84.80
27368;DHT22;14839;48.106;11.618;2022-10-31T14:03:40;19.30;85.60
27368;DHT22;14839;48.106;11.618;2022-10-31T14:06:07;19.30;85.90
27368;DHT22;14839;48.106;11.618;2022-10-31T14:08:35;19.30;85.60
27368;DHT22;14839;48.106;11.618;2022-10-31T14:11:02;19.20;85.70
27368;DHT22;14839;48.106;11.618;2022-10-31T14:13:35;19.10;86.00
27368;DHT22;14839;48.106;11.618;2022-10-31T14:18:47;19.00;87.10
27368;DHT22;14839;48.106;11.618;2022-10-31T14:23:48;19.10;87.70
27368;DHT22;14839;48.106;11.618;2022-10-31T14:28:43;19.20;87.20
27368;DHT22;14839;48.106;11.618;2022-10-31T14:31:32;19.20;86.90
27368;DHT22;14839;48.106;11.618;2022-10-31T14:34:21;19.20;86.80
27368;DHT22;14839;48.106;11.618;2022-10-31T14:42:29;19.00;87.50
27368;DHT22;14839;48.106;11.618;2022-10-31T14:51:01;18.80;89.00
27368;DHT22;14839;48.106;11.618;2022-10-31T14:53:42;18.80;88.90
27368;DHT22;14839;48.106;11.618;2022-10-31T14:56:10;18.90;88.70
27368;DHT22;14839;48.106;11.618;2022-10-31T14:58:43;18.90;88.70
27368;DHT22;14839;48.106;11.618;2022-10-31T15:01:29;18.90;88.90
27368;DHT22;14839;48.106;11.618;2022-10-31T15:04:07;18.90;89.30
27368;DHT22;14839;48.106;11.618;2022-10-31T15:06:42;18.80;89.90
27368;DHT22;14839;48.106;11.618;2022-10-31T15:09:32;18.80;89.60
27368;DHT22;14839;48.106;11.618;2022-10-31T15:12:01;18.70;90.20
27368;DHT22;14839;48.106;11.618;2022-10-31T15:14:40;18.60;90.60
27368;DHT22;14839;48.106;11.618;2022-10-31T15:17:05;18.60;90.60
27368;DHT22;14839;48.106;11.618;2022-10-31T15:19:33;18.50;91.10
27368;DHT22;14839;48.106;11.618;2022-10-31T15:22:00;18.40;91.30
27368;DHT22;14839;48.106;11.618;2022-10-31T15:24:34;18.40;91.30
27368;DHT22;14839;48.106;11.618;2022-10-31T15:27:00;18.40;91.20
27368;DHT22;14839;48.106;11.618;2022-10-31T15:29:27;18.30;91.30
27368;DHT22;14839;48.106;11.618;2022-10-31T15:31:58;18.30;91.20
27368;DHT22;14839;48.106;11.618;2022-10-31T15:34:38;18.40;91.30
27368;DHT22;14839;48.106;11.618;2022-10-31T15:37:04;18.30;91.20
27368;DHT22;14839;48.106;11.618;2022-10-31T15:39:30;18.20;91.40
27368;DHT22;14839;48.106;11.618;2022-10-31T15:41:59;18.30;91.60
27368;DHT22;14839;48.106;11.618;2022-10-31T15:44:36;18.30;91.70
27368;DHT22;14839;48.106;11.618;2022-10-31T15:47:12;18.20;92.40
27368;DHT22;14839;48.106;11.618;2022-10-31T15:49:40;18.00;92.90
27368;DHT22;14839;48.106;11.618;2022-10-31T15:54:53;17.60;94.00
27368;DHT22;14839;48.106;11.618;2022-10-31T15:57:22;17.50;94.60
27368;DHT22;14839;48.106;11.618;2022-10-31T15:59:48;17.40;94.60
27368;DHT22;14839;48.106;11.618;2022-10-31T16:02:19;17.20;94.60
27368;DHT22;14839;48.106;11.618;2022-10-31T16:04:52;17.10;94.60
27368;DHT22;14839;48.106;11.618;2022-10-31T16:07:18;16.90;94.60
27368;DHT22;14839;48.106;11.618;2022-10-31T16:10:00;16.70;94.60
27368;DHT22;14839;48.106;11.618;2022-10-31T16:12:37;16.60;94.60
27368;DHT22;14839;48.106;11.618;2022-10-31T16:15:13;16.40;94.60
27368;DHT22;14839;48.106;11.618;2022-10-31T16:17:41;16.20;94.60
27368;DHT22;14839;48.106;11.618;2022-10-31T16:20:19;16.10;94.60
27368;DHT22;14839;48.106;11.618;2022-10-31T16:22:49;16.00;94.60
27368;DHT22;14839;48.106;11.618;2022-10-31T16:25:36;15.80;94.60
27368;DHT22;14839;48.106;11.618;2022-10-31T16:28:05;15.70;94.60
27368;DHT22;14839;48.106;11.618;2022-10-31T16:30:40;15.70;94.60
27368;DHT22;14839;48.106;11.618;2022-10-31T16:33:28;15.50;94.60
27368;DHT22;14839;48.106;11.618;2022-10-31T16:35:55;15.40;94.60
27368;DHT22;14839;48.106;11.618;2022-10-31T16:38:21;15.30;94.60
27368;DHT22;14839;48.106;11.618;2022-10-31T16:40:47;15.30;94.60
27368;DHT22;14839;48.106;11.618;2022-10-31T16:43:15;15.20;94.60
27368;DHT22;14839;48.106;11.618;2022-10-31T16:45:49;15.10;94.60
27368;DHT22;14839;48.106;11.618;2022-10-31T16:48:17;15.00;94.60
27368;DHT22;14839;48.106;11.618;2022-10-31T16:50:44;14.90;94.60
27368;DHT22;14839;48.106;11.618;2022-10-31T16:53:12;14.80;94.60
27368;DHT22;14839;48.106;11.618;2022-10-31T16:58:16;14.60;94.60
27368;DHT22;14839;48.106;11.618;2022-10-31T17:00:42;14.50;94.60
27368;DHT22;14839;48.106;11.618;2022-10-31T17:03:08;14.40;94.60
27368;DHT22;14839;48.106;11.618;2022-10-31T17:05:34;14.40;94.60
27368;DHT22;14839;48.106;11.618;2022-10-31T17:08:01;14.30;94.60
27368;DHT22;14839;48.106;11.618;2022-10-31T17:10:26;14.20;94.60
27368;DHT22;14839;48.106;11.618;2022-10-31T17:12:53;14.10;94.60
27368;DHT22;14839;48.106;11.618;2022-10-31T17:15:27;14.10;94.60
27368;DHT22;14839;48.106;11.618;2022-10-31T17:17:54;14.00;94.60
27368;DHT22;14839;48.106;11.618;2022-10-31T17:20:25;13.90;94.60
27368;DHT22;14839;48.106;11.618;2022-10-31T17:22:51;13.90;94.60
27368;DHT22;14839;48.106;11.618;2022-10-31T17:25:22;13.80;94.60
27368;DHT22;14839;48.106;11.618;2022-10-31T17:27:49;13.70;94.60
27368;DHT22;14839;48.106;11.618;2022-10-31T17:30:16;13.60;94.60
27368;DHT22;14839;48.106;11.618;2022-10-31T17:32:43;13.50;94.60
27368;DHT22;14839;48.106;11.618;2022-10-31T17:35:10;13.40;94.60
27368;DHT22;14839;48.106;11.618;2022-10-31T17:37:37;13.30;94.60
27368;DHT22;14839;48.106;11.618;2022-10-31T17:40:04;13.20;94.60
27368;DHT22;14839;48.106;11.618;2022-10-31T17:42:30;13.20;94.60
27368;DHT22;14839;48.106;11.618;2022-10-31T17:44:56;13.10;94.60
27368;DHT22;14839;48.106;11.618;2022-10-31T17:47:22;13.00;94.60
27368;DHT22;14839;48.106;11.618;2022-10-31T17:49:48;12.90;94.60
27368;DHT22;14839;48.106;11.618;2022-10-31T17:52:13;12.90;94.60
27368;DHT22;14839;48.106;11.618;2022-10-31T17:54:39;12.80;94.60
27368;DHT22;14839;48.106;11.618;2022-10-31T17:57:05;12.80;94.60
27368;DHT22;14839;48.106;11.618;2022-10-31T17:59:30;12.70;94.60
27368;DHT22;14839;48.106;11.618;2022-10-31T18:01:56;12.60;94.60
27368;DHT22;14839;48.106;11.618;2022-10-31T18:04:23;12.50;94.60
27368;DHT22;14839;48.106;11.618;2022-10-31T18:06:49;12.40;94.60
27368;DHT22;14839;48.106;11.618;2022-10-31T18:09:15;12.40;94.60
27368;DHT22;14839;48.106;11.618;2022-10-31T18:11:41;12.40;94.60
27368;DHT22;14839;48.106;11.618;2022-10-31T18:14:08;12.30;94.60
27368;DHT22;14839;48.106;11.618;2022-10-31T18:16:34;12.20;94.60
27368;DHT22;14839;48.106;11.618;2022-10-31T18:18:59;12.10;94.60
27368;DHT22;14839;48.106;11.618;2022-10-31T18:21:27;12.10;94.60
27368;DHT22;14839;48.106;11.618;2022-10-31T18:23:56;12.00;94.60
27368;DHT22;14839;48.106;11.618;2022-10-31T18:26:23;12.00;94.60
27368;DHT22;14839;48.106;11.618;2022-10-31T18:28:49;11.90;94.60
27368;DHT22;14839;48.106;11.618;2022-10-31T18:31:14;12.00;94.60
27368;DHT22;14839;48.106;11.618;2022-10-31T18:33:40;11.90;94.60
27368;DHT22;14839;48.106;11.618;2022-10-31T18:36:08;11.80;94.60
27368;DHT22;14839;48.106;11.618;2022-10-31T18:38:39;11.80;94.60
27368;DHT22;14839;48.106;11.618;2022-10-31T18:41:06;11.70;94.60
27368;DHT22;14839;48.106;11.618;2022-10-31T18:43:32;11.60;94.60
27368;DHT22;14839;48.106;11.618;2022-10-31T18:46:02;11.60;94.60
27368;DHT22;14839;48.106;11.618;2022-10-31T18:48:28;11.50;94.60
27368;DHT22;14839;48.106;11.618;2022-10-31T18:51:07;11.40;94.60
27368;DHT22;14839;48.106;11.618;2022-10-31T18:53:33;11.40;94.60
27368;DHT22;14839;48.106;11.618;2022-10-31T18:55:59;11.40;94.60
27368;DHT22;14839;48.106;11.618;2022-10-31T18:58:26;11.30;94.60
27368;DHT22;14839;48.106;11.618;2022-10-31T19:00:52;11.30;94.60
27368;DHT22;14839;48.106;11.618;2022-10-31T19:03:18;11.20;94.60
27368;DHT22;14839;48.106;11.618;2022-10-31T19:05:44;11.20;94.60
27368;DHT22;14839;48.106;11.618;2022-10-31T19:08:10;11.20;94.60
27368;DHT22;14839;48.106;11.618;2022-10-31T19:10:39;11.10;94.60
27368;DHT22;14839;48.106;11.618;2022-10-31T19:13:05;11.10;94.60
27368;DHT22;14839;48.106;11.618;2022-10-31T19:15:33;11.00;94.60
27368;DHT22;14839;48.106;11.618;2022-10-31T19:17:59;11.00;94.60
27368;DHT22;14839;48.106;11.618;2022-10-31T19:20:26;10.90;94.60
27368;DHT22;14839;48.106;11.618;2022-10-31T19:22:51;10.80;94.60
27368;DHT22;14839;48.106;11.618;2022-10-31T19:25:17;10.80;94.60
27368;DHT22;14839;48.106;11.618;2022-10-31T19:27:43;10.70;94.60
27368;DHT22;14839;48.106;11.618;2022-10-31T19:30:09;10.70;94.60
27368;DHT22;14839;48.106;11.618;2022-10-31T19:32:35;10.70;94.60
27368;DHT22;14839;48.106;11.618;2022-10-31T19:35:00;10.70;94.60
27368;DHT22;14839;48.106;11.618;2022-10-31T19:37:27;10.60;94.60
27368;DHT22;14839;48.106;11.618;2022-10-31T19:39:52;10.60;94.60
27368;DHT22;14839;48.106;11.618;2022-10-31T19:42:18;10.50;94.60
27368;DHT22;14839;48.106;11.618;2022-10-31T19:44:44;10.50;94.60
27368;DHT22;14839;48.106;11.618;2022-10-31T19:47:09;10.40;94.60
27368;DHT22;14839;48.106;11.618;2022-10-31T19:49:35;10.30;94.60
27368;DHT22;14839;48.106;11.618;2022-10-31T19:52:01;10.40;94.60
27368;DHT22;14839;48.106;11.618;2022-10-31T19:54:26;10.40;94.60
27368;DHT22;14839;48.106;11.618;2022-10-31T19:56:52;10.40;94.60
27368;DHT22;14839;48.106;11.618;2022-10-31T19:59:17;10.30;94.60
27368;DHT22;14839;48.106;11.618;2022-10-31T20:01:43;10.20;94.60
27368;DHT22;14839;48.106;11.618;2022-10-31T20:04:09;10.20;94.60
27368;DHT22;14839;48.106;11.618;2022-10-31T20:06:37;10.10;94.60
27368;DHT22;14839;48.106;11.618;2022-10-31T20:09:05;10.10;94.60
27368;DHT22;14839;48.106;11.618;2022-10-31T20:11:32;10.10;94.60
27368;DHT22;14839;48.106;11.618;2022-10-31T20:13:58;10.10;94.60
27368;DHT22;14839;48.106;11.618;2022-10-31T20:16:25;10.00;94.60
27368;DHT22;14839;48.106;11.618;2022-10-31T20:18:51;10.00;94.60
27368;DHT22;14839;48.106;11.618;2022-10-31T20:21:21;10.00;94.60
27368;DHT22;14839;48.106;11.618;2022-10-31T20:23:47;10.00;94.60
27368;DHT22;14839;48.106;11.618;2022-10-31T20:26:17;10.00;94.60
27368;DHT22;14839;48.106;11.618;2022-10-31T20:28:43;10.00;94.60
27368;DHT22;14839;48.106;11.618;2022-10-31T20:31:13;9.90;94.60
27368;DHT22;14839;48.106;11.618;2022-10-31T20:33:39;9.80;94.60
27368;DHT22;14839;48.106;11.618;2022-10-31T20:36:06;9.80;94.60
27368;DHT22;14839;48.106;11.618;2022-10-31T20:38:32;9.80;94.60
27368;DHT22;14839;48.106;11.618;2022-10-31T20:41:03;9.70;94.60
27368;DHT22;14839;48.106;11.618;2022-10-31T20:43:29;9.60;94.60
27368;DHT22;14839;48.106;11.618;2022-10-31T20:46:07;9.70;94.60
27368;DHT22;14839;48.106;11.618;2022-10-31T20:48:32;9.60;94.60
27368;DHT22;14839;48.106;11.618;2022-10-31T20:51:00;9.50;94.60
27368;DHT22;14839;48.106;11.618;2022-10-31T20:53:27;9.50;94.60
27368;DHT22;14839;48.106;11.618;2022-10-31T20:56:06;9.40;94.60
27368;DHT22;14839;48.106;11.618;2022-10-31T20:58:33;9.40;94.60
27368;DHT22;14839;48.106;11.618;2022-10-31T21:00:59;9.40;94.60
27368;DHT22;14839;48.106;11.618;2022-10-31T21:03:25;9.50;94.60
27368;DHT22;14839;48.106;11.618;2022-10-31T21:05:59;9.40;94.60
27368;DHT22;14839;48.106;11.618;2022-10-31T21:08:27;9.40;94.60
27368;DHT22;14839;48.106;11.618;2022-10-31T21:10:53;9.40;94.60
27368;DHT22;14839;48.106;11.618;2022-10-31T21:13:19;9.30;94.60
27368;DHT22;14839;48.106;11.618;2022-10-31T21:15:44;9.30;94.60
27368;DHT22;14839;48.106;11.618;2022-10-31T21:18:11;9.30;94.60
27368;DHT22;14839;48.106;11.618;2022-10-31T21:20:41;9.30;94.60
27368;DHT22;14839;48.106;11.618;2022-10-31T21:23:11;9.30;94.60
27368;DHT22;14839;48.106;11.618;2022-10-31T21:25:41;9.20;94.60
27368;DHT22;14839;48.106;11.618;2022-10-31T21:28:09;9.30;94.60
27368;DHT22;14839;48.106;11.618;2022-10-31T21:30:40;9.30;94.60
27368;DHT22;14839;48.106;11.618;2022-10-31T21:33:06;9.30;94.60
27368;DHT22;14839;48.106;11.618;2022-10-31T21:35:31;9.30;94.60
27368;DHT22;14839;48.106;11.618;2022-10-31T21:37:57;9.20;94.60
27368;DHT22;14839;48.106;11.618;2022-10-31T21:40:23;9.20;94.60
27368;DHT22;14839;48.106;11.618;2022-10-31T21:42:49;9.20;94.60
27368;DHT22;14839;48.106;11.618;2022-10-31T21:45:15;9.20;94.60
27368;DHT22;14839;48.106;11.618;2022-10-31T21:47:40;9.10;94.60
27368;DHT22;14839;48.106;11.618;2022-10-31T21:50:07;9.10;94.60
27368;DHT22;14839;48.106;11.618;2022-10-31T21:52:32;9.10;94.60
27368;DHT22;14839;48.106;11.618;2022-10-31T21:54:58;9.10;94.60
27368;DHT22;14839;48.106;11.618;2022-10-31T21:57:23;9.00;94.60
27368;DHT22;14839;48.106;11.618;2022-10-31T21:59:49;9.10;94.60
27368;DHT22;14839;48.106;11.618;2022-10-31T22:02:15;9.00;94.60
27368;DHT22;14839;48.106;11.618;2022-10-31T22:04:40;9.00;94.60
27368;DHT22;14839;48.106;11.618;2022-10-31T22:07:06;8.90;94.60
27368;DHT22;14839;48.106;11.618;2022-10-31T22:09:32;8.90;94.60
27368;DHT22;14839;48.106;11.618;2022-10-31T22:11:58;8.90;94.60
27368;DHT22;14839;48.106;11.618;2022-10-31T22:14:25;8.90;94.60
27368;DHT22;14839;48.106;11.618;2022-10-31T22:16:51;8.90;94.60
27368;DHT22;14839;48.106;11.618;2022-10-31T22:19:17;8.90;94.60
27368;DHT22;14839;48.106;11.618;2022-10-31T22:21:44;8.90;94.60
27368;DHT22;14839;48.106;11.618;2022-10-31T22:24:14;8.90;94.60
27368;DHT22;14839;48.106;11.618;2022-10-31T22:26:40;9.00;94.60